createdAt,value
2023-03-30T00:01:00.856Z,2.27
2023-03-30T00:03:29.805Z,2.77
2023-03-30T00:05:58.471Z,3.00
2023-03-30T00:08:28.323Z,2.83
2023-03-30T00:11:02.760Z,2.77
2023-03-30T00:13:31.964Z,3.07
2023-03-30T00:16:00.651Z,2.73
2023-03-30T00:18:29.945Z,2.43
2023-03-30T00:20:59.167Z,3.23
2023-03-30T00:23:27.547Z,2.40
2023-03-30T00:25:56.078Z,3.03
2023-03-30T00:28:26.350Z,2.80
2023-03-30T00:30:54.865Z,3.40
2023-03-30T00:33:33.553Z,3.30
2023-03-30T00:36:10.862Z,2.87
2023-03-30T00:38:39.338Z,2.87
2023-03-30T00:41:07.857Z,2.60
2023-03-30T00:43:37.609Z,2.90
2023-03-30T00:46:06.297Z,2.30
2023-03-30T00:48:40.576Z,2.83
2023-03-30T00:51:10.520Z,2.73
2023-03-30T00:53:39.309Z,2.40
2023-03-30T00:56:08.435Z,2.23
2023-03-30T00:58:38.620Z,2.40
2023-03-30T01:01:07.904Z,2.33
2023-03-30T01:03:37.951Z,2.50
2023-03-30T01:06:07.523Z,2.30
2023-03-30T01:08:37.222Z,2.57
2023-03-30T01:11:06.664Z,2.40
2023-03-30T01:13:35.746Z,2.70
2023-03-30T01:16:08.537Z,2.60
2023-03-30T01:18:40.168Z,2.30
2023-03-30T01:21:12.601Z,2.53
2023-03-30T01:23:52.485Z,2.57
2023-03-30T01:26:28.498Z,2.43
2023-03-30T01:28:57.790Z,2.07
2023-03-30T01:31:42.000Z,2.50
2023-03-30T01:34:28.338Z,2.73
2023-03-30T01:37:09.097Z,2.80
2023-03-30T01:39:41.882Z,2.53
2023-03-30T01:42:12.192Z,2.33
2023-03-30T01:44:42.649Z,2.60
2023-03-30T01:47:11.887Z,2.20
2023-03-30T01:49:41.728Z,2.57
2023-03-30T01:52:12.714Z,2.40
2023-03-30T01:54:43.992Z,2.50
2023-03-30T01:57:14.276Z,2.47
2023-03-30T01:59:43.252Z,2.33
2023-03-30T02:02:11.709Z,2.40
2023-03-30T02:04:40.980Z,2.73
2023-03-30T02:07:10.496Z,2.57
2023-03-30T02:09:39.096Z,2.70
2023-03-30T02:12:09.020Z,3.10
2023-03-30T02:14:37.450Z,2.50
2023-03-30T02:17:07.574Z,2.57
2023-03-30T02:19:37.946Z,2.00
2023-03-30T02:22:08.774Z,2.43
2023-03-30T02:24:37.234Z,3.43
2023-03-30T02:27:05.724Z,2.20
2023-03-30T02:29:35.779Z,2.60
2023-03-30T02:32:04.312Z,2.30
2023-03-30T02:34:45.767Z,2.00
2023-03-30T02:37:24.174Z,2.00
2023-03-30T02:39:55.661Z,2.20
2023-03-30T02:42:38.887Z,2.00
2023-03-30T02:45:13.468Z,2.00
2023-03-30T02:47:43.558Z,2.17
2023-03-30T02:50:12.712Z,2.30
2023-03-30T02:52:43.105Z,2.00
2023-03-30T02:55:13.669Z,2.50
2023-03-30T02:57:44.853Z,2.20
2023-03-30T03:00:17.247Z,2.03
2023-03-30T03:02:47.942Z,2.00
2023-03-30T03:05:16.738Z,2.23
2023-03-30T03:07:45.361Z,2.10
2023-03-30T03:10:13.712Z,2.03
2023-03-30T03:12:42.342Z,1.60
2023-03-30T03:15:11.396Z,1.90
2023-03-30T03:17:41.911Z,2.20
2023-03-30T03:20:11.355Z,1.60
2023-03-30T03:22:39.695Z,2.40
2023-03-30T03:25:08.708Z,2.33
2023-03-30T03:27:37.195Z,2.00
2023-03-30T03:30:05.875Z,2.17
2023-03-30T03:32:34.299Z,2.57
2023-03-30T03:35:04.032Z,2.73
2023-03-30T03:37:33.193Z,2.30
2023-03-30T03:40:01.454Z,2.33
2023-03-30T03:42:29.738Z,2.47
2023-03-30T03:44:58.095Z,2.30
2023-03-30T03:47:26.664Z,2.40
2023-03-30T03:49:55.120Z,3.03
2023-03-30T03:52:24.932Z,2.87
2023-03-30T03:54:53.306Z,2.67
2023-03-30T03:57:24.037Z,2.50
2023-03-30T03:59:53.083Z,2.40
2023-03-30T04:02:23.826Z,2.80
2023-03-30T04:04:53.496Z,3.07
2023-03-30T04:07:22.111Z,3.43
2023-03-30T04:09:51.829Z,3.00
2023-03-30T04:12:20.848Z,4.10
2023-03-30T04:14:49.387Z,3.37
2023-03-30T04:17:17.772Z,3.97
2023-03-30T04:19:46.355Z,3.33
2023-03-30T04:22:14.720Z,3.93
2023-03-30T04:24:44.726Z,3.90
2023-03-30T04:27:16.950Z,4.00
2023-03-30T04:29:46.031Z,3.60
2023-03-30T04:32:20.705Z,3.57
2023-03-30T04:34:49.055Z,4.60
2023-03-30T04:37:18.421Z,3.63
2023-03-30T04:39:46.741Z,3.73
2023-03-30T04:42:20.202Z,5.03
2023-03-30T04:44:50.979Z,3.77
2023-03-30T04:47:19.600Z,3.30
2023-03-30T04:49:47.986Z,3.40
2023-03-30T04:52:16.753Z,4.07
2023-03-30T04:54:45.340Z,3.53
2023-03-30T04:57:14.204Z,4.67
2023-03-30T04:59:44.050Z,3.57
2023-03-30T05:02:12.880Z,3.70
2023-03-30T05:04:41.339Z,3.97
2023-03-30T05:07:10.994Z,3.43
2023-03-30T05:09:39.354Z,3.93
2023-03-30T05:12:07.816Z,4.10
2023-03-30T05:14:36.218Z,3.80
2023-03-30T05:17:05.977Z,3.87
2023-03-30T05:19:35.084Z,4.40
2023-03-30T05:22:03.401Z,4.57
2023-03-30T05:24:31.763Z,4.93
2023-03-30T05:27:00.108Z,4.10
2023-03-30T05:29:28.604Z,5.63
2023-03-30T05:31:57.022Z,4.73
2023-03-30T05:34:27.123Z,4.73
2023-03-30T05:36:55.759Z,4.47
2023-03-30T05:39:24.893Z,3.87
2023-03-30T05:41:54.195Z,4.47
2023-03-30T05:44:22.791Z,5.77
2023-03-30T05:46:51.508Z,5.87
2023-03-30T05:49:19.818Z,5.10
2023-03-30T05:51:49.553Z,4.90
2023-03-30T05:54:17.887Z,5.13
2023-03-30T05:56:46.388Z,5.13
2023-03-30T05:59:14.848Z,5.20
2023-03-30T06:01:43.268Z,5.83
2023-03-30T06:04:11.835Z,5.23
2023-03-30T06:06:40.931Z,4.27
2023-03-30T06:09:16.609Z,5.40
2023-03-30T06:11:45.058Z,4.80
2023-03-30T06:14:13.545Z,4.97
2023-03-30T06:16:41.919Z,4.50
2023-03-30T06:19:10.311Z,4.43
2023-03-30T06:21:39.828Z,4.60
2023-03-30T06:24:08.256Z,5.53
2023-03-30T06:26:37.904Z,5.97
2023-03-30T06:29:06.260Z,5.03
2023-03-30T06:31:34.950Z,5.60
2023-03-30T06:34:03.397Z,5.13
2023-03-30T06:36:44.218Z,5.30
2023-03-30T06:39:14.443Z,4.53
2023-03-30T06:41:44.487Z,5.20
2023-03-30T06:44:14.684Z,5.13
2023-03-30T06:46:43.371Z,5.63
2023-03-30T06:49:13.234Z,4.57
2023-03-30T06:51:42.118Z,6.07
2023-03-30T06:54:10.781Z,5.23
2023-03-30T06:56:39.179Z,5.53
2023-03-30T06:59:12.374Z,6.70
2023-03-30T07:01:41.172Z,5.60
2023-03-30T07:04:09.584Z,6.20
2023-03-30T07:06:37.938Z,4.57
2023-03-30T07:09:06.492Z,5.40
2023-03-30T07:11:34.989Z,4.50
2023-03-30T07:14:05.454Z,5.17
2023-03-30T07:16:35.269Z,6.27
2023-03-30T07:19:03.900Z,6.07
2023-03-30T07:21:32.510Z,5.97
2023-03-30T07:24:01.827Z,6.13
2023-03-30T07:26:30.268Z,6.33
2023-03-30T07:28:59.572Z,6.37
2023-03-30T07:31:28.121Z,6.23
2023-03-30T07:33:57.810Z,5.83
2023-03-30T07:36:26.486Z,7.83
2023-03-30T07:38:54.834Z,6.37
2023-03-30T07:41:23.364Z,6.57
2023-03-30T07:43:51.969Z,5.60
2023-03-30T07:46:20.748Z,6.83
2023-03-30T07:48:49.088Z,6.07
2023-03-30T07:51:18.815Z,6.73
2023-03-30T07:53:49.042Z,6.10
2023-03-30T07:56:17.676Z,5.60
2023-03-30T07:58:46.051Z,6.60
2023-03-30T08:01:14.345Z,5.97
2023-03-30T08:03:45.066Z,6.90
2023-03-30T08:06:14.254Z,6.77
2023-03-30T08:08:43.983Z,6.87
2023-03-30T08:11:12.823Z,6.73
2023-03-30T08:13:41.145Z,6.80
2023-03-30T08:16:10.122Z,6.77
2023-03-30T08:18:41.426Z,6.97
2023-03-30T08:21:10.904Z,6.87
2023-03-30T08:23:39.271Z,7.17
2023-03-30T08:26:09.218Z,7.77
2023-03-30T08:28:38.251Z,6.43
2023-03-30T08:31:06.980Z,6.80
2023-03-30T08:33:36.494Z,7.67
2023-03-30T08:36:05.101Z,6.87
2023-03-30T08:38:33.693Z,5.90
2023-03-30T08:41:02.207Z,6.50
2023-03-30T08:43:34.953Z,6.90
2023-03-30T08:46:03.340Z,6.27
2023-03-30T08:48:33.574Z,6.57
2023-03-30T08:51:02.913Z,7.10
2023-03-30T08:53:31.812Z,5.97
2023-03-30T08:56:00.868Z,6.47
2023-03-30T08:58:32.016Z,7.40
2023-03-30T09:01:04.375Z,6.53
2023-03-30T09:03:34.271Z,6.17
2023-03-30T09:06:03.000Z,7.17
2023-03-30T09:08:32.046Z,6.90
2023-03-30T09:11:01.294Z,6.87
2023-03-30T09:13:30.571Z,6.53
2023-03-30T09:15:59.668Z,6.93
2023-03-30T09:18:30.385Z,6.77
2023-03-30T09:20:59.492Z,5.90
2023-03-30T09:23:29.736Z,6.57
2023-03-30T09:26:01.635Z,6.53
2023-03-30T09:28:32.916Z,7.37
2023-03-30T09:31:02.752Z,6.00
2023-03-30T09:33:35.656Z,5.90
2023-03-30T09:36:10.079Z,7.10
2023-03-30T09:38:41.856Z,6.43
2023-03-30T09:41:17.695Z,7.97
2023-03-30T09:43:46.458Z,6.80
2023-03-30T09:46:15.700Z,6.10
2023-03-30T09:48:45.958Z,6.27
2023-03-30T09:51:16.136Z,6.20
2023-03-30T09:53:44.602Z,5.87
2023-03-30T09:56:18.526Z,6.70
2023-03-30T09:58:47.049Z,6.70
2023-03-30T10:01:16.873Z,5.90
2023-03-30T10:03:47.226Z,6.40
2023-03-30T10:06:17.966Z,5.23
2023-03-30T10:08:51.011Z,6.13
2023-03-30T10:11:21.335Z,5.77
2023-03-30T10:13:50.772Z,6.47
2023-03-30T10:16:23.162Z,6.17
2023-03-30T10:18:53.919Z,6.10
2023-03-30T10:21:27.573Z,5.10
2023-03-30T10:24:03.611Z,5.33
2023-03-30T10:26:34.653Z,5.93
2023-03-30T10:29:04.445Z,6.23
2023-03-30T10:31:32.965Z,6.40
2023-03-30T10:34:03.024Z,6.10
2023-03-30T10:36:32.365Z,6.50
2023-03-30T10:39:04.916Z,6.17
2023-03-30T10:41:33.553Z,6.40
2023-03-30T10:44:07.132Z,5.80
2023-03-30T10:46:35.788Z,6.70
2023-03-30T10:49:08.645Z,6.93
2023-03-30T10:51:38.809Z,6.33
2023-03-30T10:54:08.568Z,5.97
2023-03-30T10:56:38.883Z,6.90
2023-03-30T10:59:15.639Z,6.17
2023-03-30T11:01:47.717Z,6.27
2023-03-30T11:04:23.815Z,4.80
2023-03-30T11:06:54.854Z,7.70
2023-03-30T11:09:24.555Z,5.33
2023-03-30T11:11:53.366Z,5.90
2023-03-30T11:14:23.187Z,6.43
2023-03-30T11:16:53.850Z,6.27
2023-03-30T11:19:24.339Z,6.70
2023-03-30T11:21:56.843Z,6.97
2023-03-30T11:24:25.885Z,6.77
2023-03-30T11:26:55.604Z,5.70
2023-03-30T11:29:27.132Z,6.70
2023-03-30T11:31:57.450Z,8.10
2023-03-30T11:34:31.753Z,6.33
2023-03-30T11:37:02.214Z,8.07
2023-03-30T11:39:32.780Z,7.47
2023-03-30T11:42:07.043Z,6.80
2023-03-30T11:44:35.398Z,6.83
2023-03-30T11:47:07.254Z,7.20
2023-03-30T11:49:46.429Z,6.10
2023-03-30T11:52:17.864Z,7.00
2023-03-30T11:55:03.459Z,8.10
2023-03-30T11:57:35.045Z,7.23
2023-03-30T12:00:09.798Z,5.60
2023-03-30T12:02:40.753Z,6.73
2023-03-30T12:05:12.070Z,7.10
2023-03-30T12:07:41.230Z,6.77
2023-03-30T12:10:11.396Z,6.60
2023-03-30T12:12:40.244Z,6.33
2023-03-30T12:15:14.189Z,6.73
2023-03-30T12:17:44.693Z,7.33
2023-03-30T12:20:27.077Z,6.10
2023-03-30T12:22:57.206Z,6.70
2023-03-30T12:25:30.668Z,6.80
2023-03-30T12:28:04.993Z,6.90
2023-03-30T12:30:35.897Z,7.23
2023-03-30T12:33:04.897Z,8.00
2023-03-30T12:35:51.891Z,7.67
2023-03-30T12:38:25.560Z,7.07
2023-03-30T12:41:22.378Z,8.37
2023-03-30T12:44:15.704Z,6.43
2023-03-30T12:46:45.287Z,7.10
2023-03-30T12:49:16.777Z,6.93
2023-03-30T12:51:52.292Z,6.43
2023-03-30T12:54:26.710Z,7.03
2023-03-30T12:56:56.995Z,6.83
2023-03-30T12:59:31.509Z,7.23
2023-03-30T13:02:03.518Z,7.73
2023-03-30T13:04:35.014Z,6.77
2023-03-30T13:07:03.956Z,6.80
2023-03-30T13:09:54.631Z,7.00
2023-03-30T13:12:28.844Z,6.73
2023-03-30T13:15:01.535Z,6.93
2023-03-30T13:17:30.119Z,6.43
2023-03-30T13:20:29.281Z,6.90
2023-03-30T13:23:08.601Z,6.20
2023-03-30T13:25:40.463Z,6.83
2023-03-30T13:28:27.425Z,6.60
2023-03-30T13:30:57.394Z,6.60
2023-03-30T13:33:25.847Z,6.63
2023-03-30T13:35:57.336Z,6.33
2023-03-30T13:38:32.569Z,5.53
2023-03-30T13:41:04.989Z,6.40
2023-03-30T13:43:51.701Z,6.13
2023-03-30T13:46:23.707Z,5.17
2023-03-30T13:48:56.470Z,6.40
2023-03-30T13:51:25.805Z,6.20
2023-03-30T13:53:55.160Z,5.87
2023-03-30T13:56:23.549Z,6.17
2023-03-30T13:58:52.777Z,5.30
2023-03-30T14:01:23.697Z,5.37
2023-03-30T14:03:52.824Z,6.20
2023-03-30T14:06:22.755Z,5.53
2023-03-30T14:08:52.487Z,5.43
2023-03-30T14:11:21.797Z,6.10
2023-03-30T14:13:53.911Z,5.80
2023-03-30T14:16:24.301Z,5.83
2023-03-30T14:18:57.218Z,6.40
2023-03-30T14:21:25.956Z,6.47
2023-03-30T14:23:55.769Z,4.27
2023-03-30T14:26:34.169Z,6.13
2023-03-30T14:29:04.099Z,5.97
2023-03-30T14:31:47.208Z,5.37
2023-03-30T14:34:35.308Z,5.70
2023-03-30T14:37:05.185Z,5.63
2023-03-30T14:39:33.966Z,5.73
2023-03-30T14:42:10.031Z,5.53
2023-03-30T14:44:39.659Z,5.53
2023-03-30T14:47:09.413Z,6.30
2023-03-30T14:49:40.858Z,5.13
2023-03-30T14:52:09.820Z,5.77
2023-03-30T14:54:38.227Z,5.47
2023-03-30T14:57:07.373Z,5.47
2023-03-30T14:59:38.533Z,4.70
2023-03-30T15:02:11.580Z,4.93
2023-03-30T15:04:42.730Z,4.67
2023-03-30T15:07:13.240Z,5.93
2023-03-30T15:09:41.810Z,5.50
2023-03-30T15:12:10.165Z,4.27
2023-03-30T15:14:39.424Z,5.10
2023-03-30T15:17:10.731Z,4.17
2023-03-30T15:19:40.836Z,5.23
2023-03-30T15:22:09.865Z,5.63
2023-03-30T15:24:38.506Z,5.60
2023-03-30T15:27:07.531Z,5.47
2023-03-30T15:29:36.703Z,5.47
2023-03-30T15:32:08.036Z,5.97
2023-03-30T15:34:36.780Z,5.83
2023-03-30T15:37:21.297Z,5.30
2023-03-30T15:39:50.032Z,6.57
2023-03-30T15:42:25.981Z,4.80
2023-03-30T15:45:02.714Z,5.60
2023-03-30T15:47:31.779Z,5.63
2023-03-30T15:50:00.392Z,4.67
2023-03-30T15:52:33.624Z,5.10
2023-03-30T15:55:04.153Z,4.40
2023-03-30T15:57:32.920Z,5.33
2023-03-30T16:00:02.357Z,4.67
2023-03-30T16:02:37.631Z,4.43
2023-03-30T16:05:06.692Z,4.80
2023-03-30T16:07:38.660Z,3.90
2023-03-30T16:10:07.641Z,4.50
2023-03-30T16:12:36.051Z,4.40
2023-03-30T16:15:04.851Z,5.37
2023-03-30T16:17:34.407Z,4.77
2023-03-30T16:20:04.301Z,4.50
2023-03-30T16:22:36.067Z,5.53
2023-03-30T16:25:04.787Z,5.50
2023-03-30T16:27:33.324Z,4.30
2023-03-30T16:30:01.792Z,4.93
2023-03-30T16:32:35.352Z,6.27
2023-03-30T16:35:04.323Z,4.10
2023-03-30T16:37:32.730Z,4.07
2023-03-30T16:40:02.562Z,5.03
2023-03-30T16:42:31.061Z,5.10
2023-03-30T16:44:59.647Z,3.83
2023-03-30T16:47:28.114Z,5.27
2023-03-30T16:49:56.582Z,5.13
2023-03-30T16:52:25.192Z,4.87
2023-03-30T16:54:53.680Z,5.73
2023-03-30T16:57:25.198Z,4.93
2023-03-30T16:59:54.207Z,5.07
2023-03-30T17:02:22.648Z,4.50
2023-03-30T17:04:51.571Z,4.00
2023-03-30T17:07:19.954Z,3.97
2023-03-30T17:09:48.371Z,4.43
2023-03-30T17:12:16.872Z,4.20
2023-03-30T17:14:47.004Z,4.27
2023-03-30T17:17:15.413Z,3.73
2023-03-30T17:19:43.911Z,4.93
2023-03-30T17:22:15.059Z,4.13
2023-03-30T17:24:43.467Z,4.30
2023-03-30T17:27:11.938Z,3.87
2023-03-30T17:29:40.435Z,4.63
2023-03-30T17:32:13.518Z,4.23
2023-03-30T17:34:42.594Z,4.93
2023-03-30T17:37:11.034Z,3.73
2023-03-30T17:39:39.481Z,4.20
2023-03-30T17:42:07.866Z,4.53
2023-03-30T17:44:37.026Z,3.73
2023-03-30T17:47:05.382Z,4.87
2023-03-30T17:49:35.118Z,5.13
2023-03-30T17:52:03.466Z,4.57
2023-03-30T17:54:31.860Z,4.50
2023-03-30T17:57:00.281Z,4.23
2023-03-30T17:59:29.103Z,4.03
2023-03-30T18:01:57.473Z,5.07
2023-03-30T18:04:25.995Z,4.27
2023-03-30T18:06:55.873Z,4.33
2023-03-30T18:09:24.214Z,4.83
2023-03-30T18:11:52.697Z,5.27
2023-03-30T18:14:21.103Z,4.50
2023-03-30T18:16:50.418Z,4.97
2023-03-30T18:19:18.925Z,4.23
2023-03-30T18:21:47.443Z,4.60
2023-03-30T18:24:17.161Z,4.30
2023-03-30T18:26:45.905Z,4.37
2023-03-30T18:29:19.900Z,4.40
2023-03-30T18:31:48.379Z,5.80
2023-03-30T18:34:17.192Z,5.80
2023-03-30T18:36:45.531Z,4.43
2023-03-30T18:39:14.161Z,5.70
2023-03-30T18:41:44.024Z,5.50
2023-03-30T18:44:13.133Z,5.37
2023-03-30T18:46:41.563Z,4.47
2023-03-30T18:49:11.129Z,5.60
2023-03-30T18:51:39.527Z,5.23
2023-03-30T18:54:08.045Z,5.57
2023-03-30T18:56:37.898Z,5.30
2023-03-30T18:59:07.663Z,5.67
2023-03-30T19:01:36.787Z,4.37
2023-03-30T19:04:08.192Z,5.87
2023-03-30T19:06:36.471Z,4.70
2023-03-30T19:09:05.168Z,5.50
2023-03-30T19:11:33.556Z,5.23
2023-03-30T19:14:04.713Z,5.23
2023-03-30T19:16:35.039Z,5.90
2023-03-30T19:19:03.592Z,5.47
2023-03-30T19:21:32.042Z,6.13
2023-03-30T19:24:00.380Z,5.83
2023-03-30T19:26:28.769Z,5.50
2023-03-30T19:28:57.100Z,5.50
2023-03-30T19:31:25.660Z,6.13
2023-03-30T19:33:55.454Z,5.40
2023-03-30T19:36:25.340Z,4.90
2023-03-30T19:38:54.473Z,5.60
2023-03-30T19:41:22.864Z,5.80
2023-03-30T19:43:51.242Z,5.17
2023-03-30T19:46:19.739Z,5.37
2023-03-30T19:48:48.163Z,5.63
2023-03-30T19:51:19.010Z,6.50
2023-03-30T19:53:47.593Z,6.00
2023-03-30T19:56:16.531Z,5.53
2023-03-30T19:58:45.230Z,6.17
2023-03-30T20:01:13.701Z,5.77
2023-03-30T20:03:42.145Z,6.47
2023-03-30T20:06:11.766Z,5.00
2023-03-30T20:08:41.734Z,6.77
2023-03-30T20:11:10.135Z,6.37
2023-03-30T20:13:45.482Z,5.80
2023-03-30T20:16:20.399Z,5.80
2023-03-30T20:18:50.748Z,5.90
2023-03-30T20:21:19.381Z,5.53
2023-03-30T20:23:49.121Z,5.50
2023-03-30T20:26:19.424Z,5.40
2023-03-30T20:28:47.822Z,6.53
2023-03-30T20:31:16.674Z,5.03
2023-03-30T20:33:45.145Z,6.00
2023-03-30T20:36:13.644Z,6.60
2023-03-30T20:38:45.894Z,6.10
2023-03-30T20:41:15.973Z,6.53
2023-03-30T20:43:56.277Z,5.20
2023-03-30T20:46:36.382Z,6.80
2023-03-30T20:49:04.777Z,5.67
2023-03-30T20:51:33.219Z,5.83
2023-03-30T20:54:01.892Z,6.30
2023-03-30T20:56:31.624Z,4.87
2023-03-30T20:59:00.221Z,6.37
2023-03-30T21:01:29.472Z,6.27
2023-03-30T21:03:58.153Z,6.53
2023-03-30T21:06:27.109Z,5.73
2023-03-30T21:08:55.788Z,5.30
2023-03-30T21:11:26.611Z,5.60
2023-03-30T21:13:59.406Z,5.47
2023-03-30T21:16:27.927Z,4.60
2023-03-30T21:18:56.443Z,5.67
2023-03-30T21:21:25.096Z,5.63
2023-03-30T21:23:53.585Z,6.00
2023-03-30T21:26:21.962Z,5.77
2023-03-30T21:28:50.451Z,5.83
2023-03-30T21:31:20.378Z,4.80
2023-03-30T21:33:48.728Z,6.20
2023-03-30T21:36:17.239Z,6.30
2023-03-30T21:38:45.695Z,6.13
2023-03-30T21:41:14.489Z,6.33
2023-03-30T21:43:44.243Z,5.07
2023-03-30T21:46:12.983Z,5.93
2023-03-30T21:48:43.260Z,5.67
2023-03-30T21:51:13.654Z,4.60
2023-03-30T21:53:42.380Z,5.33
2023-03-30T21:56:11.236Z,5.43
2023-03-30T21:58:39.672Z,5.07
2023-03-30T22:01:12.198Z,5.30
2023-03-30T22:03:41.345Z,4.83
2023-03-30T22:06:11.769Z,4.97
2023-03-30T22:08:40.167Z,5.30
2023-03-30T22:11:09.154Z,4.67
2023-03-30T22:13:37.543Z,4.83
2023-03-30T22:16:07.069Z,5.00
2023-03-30T22:18:35.734Z,6.00
2023-03-30T22:21:04.845Z,4.70
2023-03-30T22:23:34.746Z,4.60
2023-03-30T22:26:03.334Z,5.07
2023-03-30T22:28:31.802Z,3.97
2023-03-30T22:31:01.909Z,4.50
2023-03-30T22:33:30.744Z,5.33
2023-03-30T22:35:59.982Z,4.77
2023-03-30T22:38:29.211Z,5.67
2023-03-30T22:41:06.447Z,3.97
2023-03-30T22:43:36.132Z,4.03
2023-03-30T22:46:05.266Z,4.73
2023-03-30T22:48:34.052Z,4.20
2023-03-30T22:51:03.250Z,3.87
2023-03-30T22:53:31.736Z,4.30
2023-03-30T22:56:00.134Z,4.30
2023-03-30T22:58:29.854Z,4.70
2023-03-30T23:01:01.263Z,5.03
2023-03-30T23:03:29.835Z,5.27
2023-03-30T23:06:01.159Z,6.23
2023-03-30T23:08:29.949Z,6.30
2023-03-30T23:11:05.132Z,6.63
2023-03-30T23:13:37.396Z,6.10
2023-03-30T23:16:07.395Z,6.97
2023-03-30T23:18:36.504Z,7.07
2023-03-30T23:21:06.831Z,5.53
2023-03-30T23:23:35.781Z,4.63
2023-03-30T23:26:09.086Z,4.63
2023-03-30T23:28:39.874Z,3.40
2023-03-30T23:31:08.834Z,3.97
2023-03-30T23:33:37.280Z,4.83
2023-03-30T23:36:06.504Z,4.10
2023-03-30T23:38:35.136Z,3.43
2023-03-30T23:41:03.585Z,4.37
2023-03-30T23:43:31.967Z,3.90
2023-03-30T23:46:01.880Z,3.90
2023-03-30T23:48:30.604Z,4.07
2023-03-30T23:50:59.094Z,3.80
2023-03-30T23:53:27.483Z,3.80
2023-03-30T23:55:55.847Z,3.80
2023-03-30T23:58:24.285Z,3.40
